createdAt,value
2022-11-19T00:00:25.660Z,15.20
2022-11-19T00:02:52.217Z,15.20
2022-11-19T00:05:18.743Z,15.30
2022-11-19T00:07:49.095Z,15.30
2022-11-19T00:10:15.609Z,15.20
2022-11-19T00:12:43.059Z,15.20
2022-11-19T00:15:09.575Z,15.20
2022-11-19T00:17:36.767Z,15.10
2022-11-19T00:20:03.268Z,15.20
2022-11-19T00:22:29.892Z,15.10
2022-11-19T00:24:56.440Z,15.10
2022-11-19T00:27:22.950Z,15.20
2022-11-19T00:29:49.443Z,15.10
2022-11-19T00:32:15.976Z,15.10
2022-11-19T00:34:42.507Z,15.20
2022-11-19T00:37:13.127Z,15.20
2022-11-19T00:39:39.633Z,15.10
2022-11-19T00:42:06.175Z,15.10
2022-11-19T00:44:36.932Z,15.10
2022-11-19T00:47:04.003Z,15.20
2022-11-19T00:49:30.498Z,15.10
2022-11-19T00:51:57.061Z,15.10
2022-11-19T00:54:29.135Z,15.10
2022-11-19T00:56:55.715Z,15.20
2022-11-19T00:59:22.218Z,15.10
2022-11-19T01:01:48.818Z,15.10
2022-11-19T01:04:16.574Z,15.00
2022-11-19T01:06:43.116Z,15.00
2022-11-19T01:09:13.131Z,15.10
2022-11-19T01:11:40.764Z,15.10
2022-11-19T01:14:09.142Z,15.10
2022-11-19T01:16:35.780Z,15.10
2022-11-19T01:19:02.272Z,15.00
2022-11-19T01:21:28.814Z,15.10
2022-11-19T01:23:57.850Z,15.10
2022-11-19T01:26:24.367Z,15.10
2022-11-19T01:28:55.184Z,15.10
2022-11-19T01:31:21.691Z,15.10
2022-11-19T01:33:48.266Z,15.10
2022-11-19T01:36:14.754Z,15.00
2022-11-19T01:38:41.314Z,15.10
2022-11-19T01:41:07.827Z,15.00
2022-11-19T01:43:34.347Z,15.00
2022-11-19T01:46:00.861Z,15.00
2022-11-19T01:48:27.405Z,15.10
2022-11-19T01:50:53.859Z,15.10
2022-11-19T01:53:20.411Z,15.10
2022-11-19T01:55:46.929Z,15.10
2022-11-19T01:58:13.432Z,15.10
2022-11-19T02:00:39.937Z,15.10
2022-11-19T02:03:06.456Z,15.10
2022-11-19T02:05:33.014Z,15.00
2022-11-19T02:07:59.536Z,15.10
2022-11-19T02:10:26.043Z,15.10
2022-11-19T02:12:52.593Z,15.10
2022-11-19T02:15:19.116Z,15.00
2022-11-19T02:17:48.157Z,15.00
2022-11-19T02:20:14.736Z,15.00
2022-11-19T02:22:41.278Z,15.00
2022-11-19T02:25:07.786Z,15.00
2022-11-19T02:27:34.289Z,15.00
2022-11-19T02:30:02.858Z,15.10
2022-11-19T02:32:29.403Z,15.10
2022-11-19T02:34:55.983Z,15.10
2022-11-19T02:37:22.688Z,15.00
2022-11-19T02:39:49.212Z,14.90
2022-11-19T02:42:15.768Z,14.90
2022-11-19T02:44:42.295Z,14.90
2022-11-19T02:47:08.856Z,14.90
2022-11-19T02:49:43.086Z,15.00
2022-11-19T02:52:09.628Z,15.00
2022-11-19T02:54:37.379Z,15.00
2022-11-19T02:57:03.917Z,15.00
2022-11-19T02:59:33.252Z,15.00
2022-11-19T03:02:01.245Z,14.90
2022-11-19T03:04:27.850Z,15.00
2022-11-19T03:06:54.482Z,15.00
2022-11-19T03:09:28.529Z,15.00
2022-11-19T03:11:55.069Z,14.90
2022-11-19T03:14:21.586Z,15.00
2022-11-19T03:16:48.120Z,14.90
2022-11-19T03:19:17.793Z,14.90
2022-11-19T03:21:44.713Z,14.90
2022-11-19T03:24:11.207Z,14.90
2022-11-19T03:26:37.760Z,14.80
2022-11-19T03:29:04.254Z,14.90
2022-11-19T03:31:30.759Z,14.90
2022-11-19T03:34:01.221Z,14.90
2022-11-19T03:36:27.820Z,14.90
2022-11-19T03:39:01.811Z,15.00
2022-11-19T03:41:28.357Z,14.90
2022-11-19T03:43:54.920Z,15.00
2022-11-19T03:46:21.493Z,15.00
2022-11-19T03:48:48.046Z,15.00
2022-11-19T03:51:14.584Z,14.90
2022-11-19T03:53:41.111Z,14.90
2022-11-19T03:56:07.726Z,14.90
2022-11-19T03:58:34.314Z,14.90
2022-11-19T04:01:00.876Z,14.90
2022-11-19T04:03:27.399Z,14.90
2022-11-19T04:05:53.982Z,14.80
2022-11-19T04:08:20.520Z,14.90
2022-11-19T04:10:47.118Z,14.80
2022-11-19T04:13:13.651Z,14.90
2022-11-19T04:15:40.250Z,14.80
2022-11-19T04:18:06.826Z,14.80
2022-11-19T04:20:37.290Z,14.80
2022-11-19T04:23:07.375Z,14.80
2022-11-19T04:25:33.902Z,14.80
2022-11-19T04:28:03.617Z,14.80
2022-11-19T04:30:30.140Z,14.90
2022-11-19T04:32:58.631Z,14.90
2022-11-19T04:35:25.233Z,14.80
2022-11-19T04:37:51.760Z,14.90
2022-11-19T04:40:18.408Z,14.90
2022-11-19T04:42:49.336Z,14.80
2022-11-19T04:45:15.851Z,14.80
2022-11-19T04:47:43.287Z,14.80
2022-11-19T04:50:09.804Z,14.80
2022-11-19T04:52:40.543Z,14.70
2022-11-19T04:55:07.755Z,14.70
2022-11-19T05:00:24.558Z,14.80
2022-11-19T05:02:55.316Z,14.80
2022-11-19T05:05:21.912Z,14.70
2022-11-19T05:07:48.485Z,14.80
2022-11-19T05:10:14.998Z,14.80
2022-11-19T05:12:43.363Z,14.80
2022-11-19T05:15:09.880Z,14.70
2022-11-19T05:17:36.398Z,14.70
2022-11-19T05:20:02.897Z,14.70
2022-11-19T05:22:29.661Z,14.70
2022-11-19T05:24:56.168Z,14.80
2022-11-19T05:27:22.676Z,14.70
2022-11-19T05:29:49.161Z,14.80
2022-11-19T05:32:15.670Z,14.80
2022-11-19T05:34:42.205Z,14.80
2022-11-19T05:37:08.712Z,14.80
2022-11-19T05:39:35.218Z,14.80
2022-11-19T05:42:01.739Z,14.80
2022-11-19T05:44:28.228Z,14.70
2022-11-19T05:46:54.753Z,14.70
2022-11-19T05:49:21.506Z,14.70
2022-11-19T05:51:48.238Z,14.80
2022-11-19T05:54:14.848Z,14.70
2022-11-19T05:56:41.356Z,14.70
2022-11-19T05:59:07.871Z,14.80
2022-11-19T06:01:34.376Z,14.80
2022-11-19T06:04:00.884Z,14.80
2022-11-19T06:06:30.911Z,14.70
2022-11-19T06:08:57.448Z,14.70
2022-11-19T06:11:24.032Z,14.70
2022-11-19T06:13:50.507Z,14.70
2022-11-19T06:16:17.049Z,14.70
2022-11-19T06:18:43.567Z,14.70
2022-11-19T06:21:12.271Z,14.70
2022-11-19T06:23:42.187Z,14.70
2022-11-19T06:26:14.623Z,14.70
2022-11-19T06:28:41.142Z,14.60
2022-11-19T06:31:09.076Z,14.60
2022-11-19T06:33:35.589Z,14.60
2022-11-19T06:36:02.199Z,14.70
2022-11-19T06:38:28.772Z,14.60
2022-11-19T06:40:55.316Z,14.60
2022-11-19T06:43:21.836Z,14.60
2022-11-19T06:45:48.354Z,14.60
2022-11-19T06:48:14.906Z,14.60
2022-11-19T06:50:41.424Z,14.60
2022-11-19T06:53:07.932Z,14.60
2022-11-19T06:55:34.462Z,14.60
2022-11-19T06:58:00.973Z,14.70
2022-11-19T07:00:27.474Z,14.70
2022-11-19T07:02:54.028Z,14.70
2022-11-19T07:05:20.588Z,14.60
2022-11-19T07:07:47.130Z,14.70
2022-11-19T07:10:13.623Z,14.70
2022-11-19T07:12:40.343Z,14.60
2022-11-19T07:15:06.898Z,14.60
2022-11-19T07:17:33.520Z,14.60
2022-11-19T07:20:00.081Z,14.60
2022-11-19T07:22:26.604Z,14.70
2022-11-19T07:24:53.148Z,14.70
2022-11-19T07:27:19.683Z,14.60
2022-11-19T07:29:48.411Z,14.60
2022-11-19T07:32:14.934Z,14.60
2022-11-19T07:34:41.443Z,14.60
2022-11-19T07:37:07.970Z,14.60
2022-11-19T07:39:34.502Z,14.60
2022-11-19T07:42:01.039Z,14.50
2022-11-19T07:44:27.531Z,14.50
2022-11-19T07:46:53.999Z,14.50
2022-11-19T07:49:20.866Z,14.50
2022-11-19T07:51:47.698Z,14.60
2022-11-19T07:54:14.311Z,14.60
2022-11-19T07:56:40.835Z,14.60
2022-11-19T07:59:07.493Z,14.60
2022-11-19T08:01:34.513Z,14.60
2022-11-19T08:04:01.108Z,14.60
2022-11-19T08:06:27.681Z,14.60
2022-11-19T08:08:54.176Z,14.60
2022-11-19T08:11:20.640Z,14.50
2022-11-19T08:13:47.112Z,14.60
2022-11-19T08:16:13.652Z,14.60
2022-11-19T08:18:43.180Z,14.60
2022-11-19T08:21:09.688Z,14.60
2022-11-19T08:23:37.452Z,14.60
2022-11-19T08:26:04.040Z,14.60
2022-11-19T08:28:30.595Z,14.50
2022-11-19T08:30:57.181Z,14.50
2022-11-19T08:33:23.758Z,14.50
2022-11-19T08:35:50.275Z,14.50
2022-11-19T08:38:22.456Z,14.50
2022-11-19T08:40:48.970Z,14.50
2022-11-19T08:43:15.474Z,14.50
2022-11-19T08:45:41.980Z,14.50
2022-11-19T08:48:08.526Z,14.60
2022-11-19T08:50:37.263Z,14.50
2022-11-19T08:53:03.847Z,14.60
2022-11-19T08:55:30.406Z,14.60
2022-11-19T08:57:56.889Z,14.60
2022-11-19T09:00:23.373Z,14.50
2022-11-19T09:02:49.879Z,14.60
2022-11-19T09:08:08.338Z,14.50
2022-11-19T09:10:34.815Z,14.50
2022-11-19T09:13:01.369Z,14.50
2022-11-19T09:15:27.863Z,14.50
2022-11-19T09:17:54.348Z,14.50
2022-11-19T09:20:20.900Z,14.50
2022-11-19T09:22:47.517Z,14.50
2022-11-19T09:25:14.021Z,14.50
2022-11-19T09:30:24.621Z,14.50
2022-11-19T09:32:55.568Z,14.50
2022-11-19T09:35:22.075Z,14.50
2022-11-19T09:37:48.584Z,14.60
2022-11-19T09:40:16.230Z,14.60
2022-11-19T09:42:42.759Z,14.50
2022-11-19T09:45:09.287Z,14.60
2022-11-19T09:47:35.802Z,14.50
2022-11-19T09:50:02.329Z,14.50
2022-11-19T09:52:28.822Z,14.50
2022-11-19T09:54:55.339Z,14.50
2022-11-19T09:57:25.585Z,14.40
2022-11-19T09:59:52.077Z,14.50
2022-11-19T10:02:18.589Z,14.50
2022-11-19T10:04:45.129Z,14.40
2022-11-19T10:07:11.702Z,14.50
2022-11-19T10:09:43.580Z,14.50
2022-11-19T10:12:13.717Z,14.50
2022-11-19T10:14:40.228Z,14.50
2022-11-19T10:17:07.529Z,14.50
2022-11-19T10:19:34.134Z,14.50
2022-11-19T10:22:00.684Z,14.50
2022-11-19T10:24:27.267Z,14.50
2022-11-19T10:26:55.615Z,14.50
2022-11-19T10:29:22.285Z,14.50
2022-11-19T10:31:49.049Z,14.50
2022-11-19T10:34:15.573Z,14.40
2022-11-19T10:36:42.177Z,14.50
2022-11-19T10:39:08.752Z,14.50
2022-11-19T10:44:26.261Z,14.50
2022-11-19T10:46:52.813Z,14.40
2022-11-19T10:49:21.937Z,14.40
2022-11-19T10:51:48.467Z,14.40
2022-11-19T10:54:14.997Z,14.40
2022-11-19T10:56:41.570Z,14.40
2022-11-19T10:59:08.052Z,14.40
2022-11-19T11:04:14.915Z,14.50
2022-11-19T11:06:41.433Z,14.50
2022-11-19T11:09:07.996Z,14.40
2022-11-19T11:11:34.499Z,14.40
2022-11-19T11:14:03.468Z,14.40
2022-11-19T11:16:32.717Z,14.40
2022-11-19T11:21:43.419Z,14.40
2022-11-19T11:24:09.998Z,14.40
2022-11-19T11:26:36.559Z,14.30
2022-11-19T11:29:03.075Z,14.30
2022-11-19T11:31:29.611Z,14.40
2022-11-19T11:33:56.114Z,14.40
2022-11-19T11:36:22.625Z,14.40
2022-11-19T11:38:49.576Z,14.40
2022-11-19T11:42:04.335Z,14.40
2022-11-19T11:44:02.546Z,14.40
2022-11-19T11:46:29.055Z,14.50
2022-11-19T11:49:05.716Z,14.40
2022-11-19T11:51:36.724Z,14.40
2022-11-19T11:54:03.220Z,14.40
2022-11-19T11:56:29.719Z,14.40
2022-11-19T11:59:01.737Z,14.40
2022-11-19T12:01:28.244Z,14.40
2022-11-19T12:03:55.464Z,14.40
2022-11-19T12:06:22.101Z,14.40
2022-11-19T12:08:48.613Z,14.40
2022-11-19T12:11:15.129Z,14.40
2022-11-19T12:13:41.611Z,14.40
2022-11-19T12:16:08.103Z,14.40
2022-11-19T12:18:34.670Z,14.40
2022-11-19T12:21:01.382Z,14.40
2022-11-19T12:26:13.712Z,14.50
2022-11-19T12:28:40.213Z,14.50
2022-11-19T12:31:06.773Z,14.50
2022-11-19T12:33:37.669Z,14.50
2022-11-19T12:36:04.210Z,14.40
2022-11-19T12:38:30.705Z,14.40
2022-11-19T12:40:57.210Z,14.40
2022-11-19T12:43:23.701Z,14.40
2022-11-19T12:45:50.199Z,14.40
2022-11-19T12:48:16.717Z,14.40
2022-11-19T12:50:43.242Z,14.50
2022-11-19T12:53:09.876Z,14.50
2022-11-19T12:55:36.487Z,14.40
2022-11-19T12:58:03.027Z,14.50
2022-11-19T13:00:29.527Z,14.40
2022-11-19T13:03:01.779Z,14.40
2022-11-19T13:05:31.819Z,14.40
2022-11-19T13:07:58.378Z,14.40
2022-11-19T13:10:24.900Z,14.40
2022-11-19T13:12:51.426Z,14.40
2022-11-19T13:15:17.972Z,14.40
2022-11-19T13:17:44.554Z,14.40
2022-11-19T13:20:11.126Z,14.40
2022-11-19T13:22:37.754Z,14.40
2022-11-19T13:25:04.307Z,14.40
2022-11-19T13:27:30.828Z,14.40
2022-11-19T13:29:58.108Z,14.50
2022-11-19T13:32:24.768Z,14.40
2022-11-19T13:34:51.295Z,14.40
2022-11-19T13:37:17.825Z,14.40
2022-11-19T13:39:49.724Z,14.40
2022-11-19T13:42:16.206Z,14.40
2022-11-19T13:44:42.711Z,14.40
2022-11-19T13:47:09.236Z,14.30
2022-11-19T13:49:35.770Z,14.40
2022-11-19T13:52:02.333Z,14.40
2022-11-19T13:54:28.908Z,14.40
2022-11-19T13:56:55.418Z,14.40
2022-11-19T13:59:22.287Z,14.30
2022-11-19T14:01:49.772Z,14.40
2022-11-19T14:04:16.361Z,14.40
2022-11-19T14:06:45.686Z,14.40
2022-11-19T14:09:12.230Z,14.40
2022-11-19T14:11:38.740Z,14.40
2022-11-19T14:14:09.098Z,14.40
2022-11-19T14:16:35.649Z,14.40
2022-11-19T14:19:05.154Z,14.40
2022-11-19T14:21:31.682Z,14.40
2022-11-19T14:23:58.212Z,14.40
2022-11-19T14:26:27.020Z,14.40
2022-11-19T14:28:53.646Z,14.40
2022-11-19T14:31:20.179Z,14.40
2022-11-19T14:33:46.733Z,14.40
2022-11-19T14:36:13.224Z,14.40
2022-11-19T14:38:39.778Z,14.30
2022-11-19T14:41:06.276Z,14.40
2022-11-19T14:43:35.230Z,14.40
2022-11-19T14:46:01.876Z,14.40
2022-11-19T14:48:28.388Z,14.30
2022-11-19T14:50:54.979Z,14.40
2022-11-19T14:53:21.487Z,14.40
2022-11-19T14:55:48.038Z,14.30
2022-11-19T14:58:14.606Z,14.30
2022-11-19T15:00:41.134Z,14.20
2022-11-19T15:03:07.729Z,14.30
2022-11-19T15:05:34.283Z,14.30
2022-11-19T15:08:00.790Z,14.30
2022-11-19T15:10:27.325Z,14.30
2022-11-19T15:12:53.827Z,14.30
2022-11-19T15:15:20.359Z,14.30
2022-11-19T15:17:49.918Z,14.30
2022-11-19T15:20:16.535Z,14.40
2022-11-19T15:22:43.061Z,14.40
2022-11-19T15:25:12.494Z,14.40
2022-11-19T15:27:43.946Z,14.30
2022-11-19T15:30:11.779Z,14.30
2022-11-19T15:32:38.562Z,14.30
2022-11-19T15:35:11.224Z,14.40
2022-11-19T15:37:38.322Z,14.40
2022-11-19T15:40:06.123Z,14.40
2022-11-19T15:42:32.905Z,14.40
2022-11-19T15:44:59.712Z,14.50
2022-11-19T15:47:26.206Z,14.50
2022-11-19T15:52:40.298Z,14.50
2022-11-19T15:58:14.903Z,14.60
2022-11-19T16:00:44.219Z,14.50
2022-11-19T16:03:27.879Z,14.40
2022-11-19T16:05:59.074Z,14.40
2022-11-19T16:08:27.587Z,14.40
2022-11-19T16:19:34.025Z,14.30
2022-11-19T16:25:36.540Z,14.40
2022-11-19T16:28:09.874Z,14.40
2022-11-19T16:36:20.603Z,14.50
2022-11-19T16:44:31.401Z,14.50
2022-11-19T16:47:19.683Z,14.50
2022-11-19T16:49:59.043Z,14.50
2022-11-19T16:52:28.171Z,14.60
2022-11-19T17:14:48.597Z,14.60
2022-11-19T17:17:23.848Z,14.60
2022-11-19T17:20:00.649Z,14.60
2022-11-19T17:25:31.311Z,14.50
2022-11-19T17:38:52.397Z,14.50
2022-11-19T17:41:22.978Z,14.40
2022-11-19T17:46:46.119Z,14.40
2022-11-19T17:57:29.425Z,14.40
2022-11-19T17:59:59.306Z,14.40
2022-11-19T18:05:15.908Z,14.40
2022-11-19T18:10:35.313Z,14.30
2022-11-19T18:21:24.321Z,14.40
2022-11-19T18:23:57.753Z,14.40
2022-11-19T18:35:26.194Z,14.30
2022-11-19T18:38:03.865Z,14.40
2022-11-19T18:46:04.564Z,14.30
2022-11-19T18:48:37.271Z,14.30
2022-11-19T18:51:37.586Z,14.30
2022-11-19T19:09:13.884Z,14.20
2022-11-19T19:16:48.448Z,14.20
2022-11-19T19:27:28.004Z,14.20
2022-11-19T19:30:25.766Z,14.20
2022-11-19T19:43:28.011Z,14.10
2022-11-19T19:44:56.693Z,14.20
2022-11-19T19:50:35.994Z,14.20
2022-11-19T19:55:52.625Z,14.10
2022-11-19T20:23:42.011Z,14.10
2022-11-19T20:26:18.634Z,14.10
2022-11-19T20:56:45.612Z,14.10
2022-11-19T21:07:42.122Z,14.10
2022-11-19T21:10:23.493Z,14.10
2022-11-19T21:13:00.795Z,14.00
2022-11-19T21:15:45.595Z,14.00
2022-11-19T21:21:03.243Z,14.00
2022-11-19T21:29:15.848Z,14.10
2022-11-19T21:33:25.320Z,14.10
2022-11-19T21:34:45.724Z,14.00
2022-11-19T21:37:19.658Z,14.00
2022-11-19T21:40:02.453Z,14.10
2022-11-19T21:45:24.804Z,14.00
2022-11-19T21:49:28.574Z,14.00
2022-11-19T21:53:50.754Z,14.00
2022-11-19T22:03:08.736Z,13.90
2022-11-19T22:10:45.384Z,14.00
2022-11-19T22:13:27.647Z,14.00
2022-11-19T22:35:38.369Z,14.00
2022-11-19T22:44:30.479Z,13.90
2022-11-19T22:46:51.166Z,13.90
2022-11-19T22:49:19.187Z,13.90
2022-11-19T22:57:46.380Z,14.00
2022-11-19T23:05:50.259Z,13.90
2022-11-19T23:16:48.776Z,14.00
2022-11-19T23:22:12.488Z,13.90
2022-11-19T23:43:58.948Z,13.90
2022-11-19T23:49:33.813Z,13.80
2022-11-19T23:52:17.146Z,13.80
2022-11-19T23:57:29.377Z,13.80
